Time;durP1;ratioP1;P1;durP2;ratioP2;P2;SDS_P1;SDS_P2;PMS_P1;PMS_P2;Temp;Humidity;BMP_temperature;BMP_pressure;BME280_temperature;BME280_humidity;BME280_pressure;Samples;Min_cycle;Max_cycle;Signal;HPM_P1;HPM_P2
2022/06/06 00:01:16;;;;;;;7.60;6.30;;;;;;;21.61;61.16;94793.03;5077299;28;20185;-72
2022/06/06 00:03:43;;;;;;;8.10;6.15;;;;;;;21.67;60.88;94790.50;5076150;28;20197;-72
2022/06/06 00:06:11;;;;;;;6.70;6.10;;;;;;;21.72;60.72;94798.44;5076829;28;20189;-71
2022/06/06 00:08:39;;;;;;;6.32;5.82;;;;;;;21.77;60.75;94791.50;5075974;28;20209;-72
2022/06/06 00:11:08;;;;;;;6.75;6.18;;;;;;;21.79;61.11;94797.50;5075735;28;20303;-73
2022/06/06 00:13:39;;;;;;;7.00;6.30;;;;;;;21.77;60.22;94769.84;5075916;28;20251;-73
2022/06/06 00:16:06;;;;;;;6.38;5.65;;;;;;;21.78;59.00;94776.25;5076699;28;20185;-72
2022/06/06 00:18:33;;;;;;;5.95;5.30;;;;;;;21.82;58.57;94780.59;5077008;28;20181;-72
2022/06/06 00:21:00;;;;;;;6.20;5.60;;;;;;;21.86;57.69;94767.25;5077126;28;20227;-72
2022/06/06 00:23:27;;;;;;;9.38;6.00;;;;;;;21.87;57.30;94752.00;5076576;28;20237;-71
2022/06/06 00:25:54;;;;;;;5.55;5.05;;;;;;;21.94;56.84;94744.66;5075680;28;20613;-71
2022/06/06 00:28:21;;;;;;;6.70;5.43;;;;;;;21.98;57.16;94745.34;5076767;28;20220;-72
2022/06/06 00:30:49;;;;;;;6.90;5.20;;;;;;;22.00;57.72;94742.88;5076050;28;20625;-72
2022/06/06 00:36:01;;;;;;;6.43;5.00;;;;;;;22.04;57.59;94727.56;5077623;28;20224;-72
2022/06/06 00:38:28;;;;;;;6.38;5.78;;;;;;;22.02;57.74;94726.41;5076570;28;20196;-72
2022/06/06 00:40:55;;;;;;;6.40;5.80;;;;;;;21.97;57.93;94730.53;5076931;28;20194;-72
2022/06/06 00:43:22;;;;;;;6.22;5.47;;;;;;;21.91;58.47;94721.03;5076407;28;20220;-72
2022/06/06 00:45:52;;;;;;;5.60;5.05;;;;;;;21.91;58.50;94714.63;5076499;28;20247;-73
2022/06/06 00:48:22;;;;;;;5.88;5.38;;;;;;;21.89;58.80;94709.44;5075543;28;20217;-72
2022/06/06 00:50:56;;;;;;;8.07;6.40;;;;;;;21.88;58.51;94713.47;5075616;28;20307;-72
2022/06/06 00:53:31;;;;;;;6.50;5.90;;;;;;;21.83;58.90;94699.97;5076097;28;20192;-72
2022/06/06 00:56:05;;;;;;;6.85;6.18;;;;;;;21.80;59.00;94709.25;5075573;28;20201;-72
2022/06/06 00:58:32;;;;;;;6.90;6.18;;;;;;;21.76;59.04;94705.72;5075824;28;20671;-72
2022/06/06 01:01:01;;;;;;;7.18;5.97;;;;;;;21.74;59.76;94705.38;5076117;28;20186;-72
2022/06/06 01:03:30;;;;;;;6.53;5.95;;;;;;;21.73;59.22;94693.34;5075097;28;20204;-72
2022/06/06 01:05:57;;;;;;;6.95;6.28;;;;;;;21.74;59.46;94696.94;5074745;28;20185;-72
2022/06/06 01:08:25;;;;;;;7.00;6.30;;;;;;;21.73;59.58;94692.56;5076103;28;20209;-72
2022/06/06 01:10:52;;;;;;;7.05;6.38;;;;;;;21.72;59.56;94669.31;5076379;28;20242;-72
2022/06/06 01:13:22;;;;;;;6.75;6.15;;;;;;;21.72;60.60;94658.09;5075100;28;20205;-73
2022/06/06 01:16:05;;;;;;;7.50;6.68;;;;;;;21.67;62.72;94646.59;5075010;28;20299;-73
2022/06/06 01:18:38;;;;;;;10.82;6.90;;;;;;;21.52;66.89;94658.13;5076178;28;20251;-73
2022/06/06 01:21:23;;;;;;;10.68;7.20;;;;;;;21.36;67.79;94661.66;5075720;28;20189;-73
2022/06/06 01:24:07;;;;;;;11.27;7.10;;;;;;;21.30;69.49;94654.94;5074593;28;20244;-72
2022/06/06 01:26:46;;;;;;;10.93;6.75;;;;;;;21.26;70.40;94661.84;5075611;28;20189;-73
2022/06/06 01:29:16;;;;;;;9.05;6.57;;;;;;;21.14;71.46;94668.91;5074400;28;20192;-73
2022/06/06 01:31:48;;;;;;;7.32;6.25;;;;;;;21.07;70.53;94689.47;5075552;28;20185;-73
2022/06/06 01:34:22;;;;;;;7.53;6.60;;;;;;;21.05;70.46;94759.19;5075381;28;20169;-72
2022/06/06 01:36:50;;;;;;;7.32;6.30;;;;;;;21.04;67.82;94832.53;5075615;28;20185;-72
2022/06/06 01:39:17;;;;;;;6.82;5.63;;;;;;;21.02;66.26;94820.94;5075605;28;20186;-72
2022/06/06 01:41:50;;;;;;;6.43;5.90;;;;;;;21.02;65.50;94820.94;5075360;28;20181;-72
2022/06/06 01:44:25;;;;;;;6.82;5.93;;;;;;;21.03;65.01;94831.72;5074176;28;20208;-72
2022/06/06 01:46:52;;;;;;;10.63;6.28;;;;;;;21.00;67.69;94826.97;5074395;28;20257;-72
2022/06/06 01:49:19;;;;;;;12.50;6.13;;;;;;;20.85;70.38;94806.81;5074521;28;20204;-73
2022/06/06 01:51:59;;;;;;;9.25;5.45;;;;;;;20.60;70.70;94778.41;5075369;28;20185;-72
2022/06/06 01:54:26;;;;;;;6.88;5.15;;;;;;;20.53;70.44;94775.72;5057467;28;20628;-72
2022/06/06 01:56:53;;;;;;;8.13;5.18;;;;;;;20.44;70.78;94804.19;5074721;28;20225;-72
2022/06/06 01:59:22;;;;;;;8.20;5.40;;;;;;;20.36;71.25;94788.72;5073990;28;20636;-72
2022/06/06 02:01:48;;;;;;;7.10;5.20;;;;;;;20.12;71.82;94787.91;5075213;28;20256;-72
2022/06/06 02:04:15;;;;;;;7.05;5.18;;;;;;;20.00;72.76;94785.66;5074620;28;20193;-71
2022/06/06 02:06:42;;;;;;;8.07;4.95;;;;;;;20.02;72.68;94786.81;5075313;28;20254;-72
2022/06/06 02:09:09;;;;;;;6.90;4.70;;;;;;;20.05;72.31;94805.56;5074376;28;20221;-72
2022/06/06 02:11:36;;;;;;;6.57;4.30;;;;;;;20.06;72.41;94803.56;5074288;28;20193;-71
2022/06/06 02:14:04;;;;;;;7.20;4.18;;;;;;;20.10;71.28;94826.72;5075227;28;20193;-72
2022/06/06 02:16:32;;;;;;;7.93;4.20;;;;;;;20.12;71.53;94830.69;5074511;28;20254;-72
2022/06/06 02:18:59;;;;;;;4.95;4.22;;;;;;;20.15;72.24;94846.63;5075020;28;20202;-72
2022/06/06 02:21:26;;;;;;;5.65;4.22;;;;;;;20.17;72.53;94849.78;5073845;28;20204;-71
2022/06/06 02:23:53;;;;;;;6.88;4.63;;;;;;;20.22;72.02;94858.94;5075009;28;20648;-71
2022/06/06 02:26:19;;;;;;;5.00;3.85;;;;;;;20.24;71.48;94868.50;5075039;28;20185;-73
2022/06/06 02:28:46;;;;;;;8.63;4.22;;;;;;;20.30;71.86;94880.03;5074754;28;20219;-72
2022/06/06 02:31:13;;;;;;;6.63;4.32;;;;;;;20.29;71.70;94884.03;5074928;28;20185;-73
2022/06/06 02:33:41;;;;;;;6.30;3.95;;;;;;;20.29;71.55;94875.66;5074451;28;20208;-73
2022/06/06 02:36:08;;;;;;;6.40;4.13;;;;;;;20.26;71.62;94871.69;5078935;28;20181;-74
2022/06/06 02:38:35;;;;;;;9.35;4.43;;;;;;;20.24;72.55;94857.31;5078975;28;20192;-74
2022/06/06 02:41:09;;;;;;;7.93;4.18;;;;;;;20.22;71.85;94842.13;5078858;28;20276;-74
2022/06/06 02:43:36;;;;;;;7.72;3.83;;;;;;;20.20;72.38;94823.75;5077479;28;20229;-73
2022/06/06 02:46:03;;;;;;;5.20;3.58;;;;;;;20.21;72.07;94802.16;5077914;28;20204;-73
2022/06/06 02:48:31;;;;;;;6.00;3.70;;;;;;;20.19;72.62;94793.41;5077690;28;20311;-73
2022/06/06 02:50:59;;;;;;;6.00;3.45;;;;;;;20.17;71.26;94765.00;5078371;28;20231;-73
2022/06/06 02:53:27;;;;;;;6.47;3.35;;;;;;;20.18;71.23;94738.59;5078531;28;20178;-73
2022/06/06 02:55:54;;;;;;;5.28;3.08;;;;;;;20.16;70.10;94739.03;5077819;28;20189;-73
2022/06/06 02:58:22;;;;;;;6.53;3.40;;;;;;;20.16;70.05;94730.63;5078148;28;20185;-73
2022/06/06 03:00:48;;;;;;;8.52;4.00;;;;;;;20.16;70.15;94727.81;5077258;28;20200;-73
2022/06/06 03:03:16;;;;;;;7.63;3.47;;;;;;;20.16;70.75;94739.03;5078012;28;20238;-73
2022/06/06 03:05:55;;;;;;;6.75;3.90;;;;;;;20.19;71.06;94735.38;5078360;28;20193;-73
2022/06/06 03:08:35;;;;;;;7.20;3.42;;;;;;;20.20;72.40;94742.56;5077544;28;20594;-74
2022/06/06 03:11:12;;;;;;;7.13;3.53;;;;;;;20.22;72.23;94755.34;5077880;28;20189;-75
2022/06/06 03:14:00;;;;;;;7.30;4.43;;;;;;;20.17;72.46;94749.00;5078224;28;20189;-75
2022/06/06 03:22:30;;;;;;;4.63;3.42;;;;;;;20.05;76.46;94791.59;5077867;28;20250;-75
2022/06/06 03:25:04;;;;;;;6.55;3.50;;;;;;;20.02;75.93;94794.44;5077216;28;20200;-76
2022/06/06 03:27:40;;;;;;;7.68;3.80;;;;;;;20.02;76.95;94805.63;5077953;28;20189;-71
2022/06/06 03:30:10;;;;;;;6.25;3.42;;;;;;;20.00;77.06;94822.03;5077779;28;20200;-75
2022/06/06 03:32:46;;;;;;;5.93;3.95;;;;;;;19.95;77.04;94829.69;5077170;28;20197;-75
2022/06/06 03:35:19;;;;;;;6.45;4.90;;;;;;;19.93;77.28;94837.72;5077806;28;20189;-74
2022/06/06 03:37:50;;;;;;;6.32;5.07;;;;;;;19.94;77.60;94838.53;5077458;28;20602;-74
2022/06/06 03:40:24;;;;;;;8.77;5.38;;;;;;;19.94;77.79;94836.50;5076914;28;20291;-75
2022/06/06 03:42:58;;;;;;;6.82;6.13;;;;;;;19.92;77.87;94836.13;5077671;28;20204;-74
2022/06/06 03:45:29;;;;;;;8.30;6.57;;;;;;;19.91;78.05;94834.53;5077451;28;20181;-74
2022/06/06 03:48:03;;;;;;;7.50;6.18;;;;;;;19.88;78.37;94834.59;5077624;28;20276;-74
2022/06/06 03:50:36;;;;;;;7.47;6.72;;;;;;;19.84;78.40;94840.22;5076876;28;20240;-71
2022/06/06 03:53:08;;;;;;;7.25;5.93;;;;;;;19.83;78.92;94837.84;5077586;28;20219;-76
2022/06/06 03:55:48;;;;;;;10.88;5.93;;;;;;;19.80;78.88;94833.09;5076680;28;20230;-76
2022/06/06 03:58:17;;;;;;;6.63;5.60;;;;;;;19.83;78.80;94840.66;5077039;28;20538;-73
2022/06/06 04:00:45;;;;;;;7.95;5.90;;;;;;;19.84;78.92;94833.84;5076709;28;20185;-72
2022/06/06 04:03:13;;;;;;;7.68;6.47;;;;;;;19.82;79.37;94827.84;5077371;28;20189;-73
2022/06/06 04:05:39;;;;;;;8.75;6.55;;;;;;;19.80;79.71;94816.31;5077672;28;20188;-71
2022/06/06 04:08:08;;;;;;;9.35;7.10;;;;;;;19.81;80.04;94823.47;5076431;28;20213;-71
2022/06/06 04:10:42;;;;;;;9.25;6.82;;;;;;;19.81;80.10;94821.47;5076802;28;20300;-74
2022/06/06 04:13:16;;;;;;;6.75;6.07;;;;;;;19.82;79.49;94825.06;5076120;28;20208;-76
2022/06/06 04:15:53;;;;;;;8.05;6.45;;;;;;;19.80;79.69;94831.09;5076909;28;20188;-76
2022/06/06 04:18:28;;;;;;;8.68;7.03;;;;;;;19.80;80.20;94827.50;5076090;28;20223;-76
2022/06/06 04:21:03;;;;;;;8.18;6.95;;;;;;;19.81;79.93;94818.66;5075863;28;20196;-76
2022/06/06 04:23:41;;;;;;;7.30;6.32;;;;;;;19.79;79.69;94806.31;5076533;28;20236;-76
2022/06/06 04:26:18;;;;;;;7.70;6.88;;;;;;;19.75;79.98;94820.34;5076640;28;20185;-76
2022/06/06 04:28:53;;;;;;;10.13;6.55;;;;;;;19.79;80.65;94818.31;5076564;28;20204;-76
2022/06/06 04:31:26;;;;;;;10.05;7.15;;;;;;;19.80;80.50;94814.28;5075723;28;20209;-76
2022/06/06 04:33:58;;;;;;;10.18;7.65;;;;;;;19.83;80.32;94821.06;5076751;28;20190;-76
2022/06/06 04:36:30;;;;;;;10.77;7.28;;;;;;;19.82;80.46;94819.47;5076608;28;20312;-76
2022/06/06 04:39:00;;;;;;;10.80;7.70;;;;;;;19.80;80.40;94817.09;5075708;28;20193;-76
2022/06/06 04:41:32;;;;;;;6.97;6.28;;;;;;;19.83;80.73;94821.84;5076469;28;20238;-76
2022/06/06 04:44:05;;;;;;;7.55;6.85;;;;;;;19.85;80.42;94824.22;5075790;28;20645;-76
2022/06/06 04:46:37;;;;;;;9.70;6.57;;;;;;;19.84;80.61;94829.03;5076628;28;20182;-76
2022/06/06 04:49:04;;;;;;;9.88;7.07;;;;;;;19.86;80.27;94834.19;5076006;28;20592;-77
2022/06/06 04:51:33;;;;;;;7.47;6.70;;;;;;;19.89;80.57;94830.56;5076248;28;20193;-77
2022/06/06 04:54:00;;;;;;;8.45;6.70;;;;;;;19.91;80.43;94839.34;5075209;28;20197;-77
2022/06/06 04:56:28;;;;;;;9.18;7.10;;;;;;;19.92;80.62;94846.53;5075503;28;20197;-76
2022/06/06 04:58:57;;;;;;;8.20;7.28;;;;;;;19.89;81.02;94836.94;5076288;28;20185;-76
2022/06/06 05:01:26;;;;;;;9.63;7.50;;;;;;;19.90;80.82;94840.56;5076202;28;20289;-76
2022/06/06 05:03:52;;;;;;;9.57;7.53;;;;;;;19.90;80.34;94840.56;5075166;28;20529;-76
2022/06/06 05:06:49;;;;;;;9.45;7.50;;;;;;;19.85;79.62;94835.41;5076160;28;20300;-76
2022/06/06 05:09:31;;;;;;;10.90;7.82;;;;;;;19.80;80.07;94845.06;5075858;28;20205;-77
2022/06/06 05:12:09;;;;;;;11.38;7.47;;;;;;;19.78;79.91;94850.28;5075879;28;20193;-77
2022/06/06 05:14:51;;;;;;;8.43;7.55;;;;;;;19.76;79.58;94858.31;5076090;28;20181;-76
2022/06/06 05:17:32;;;;;;;9.50;7.90;;;;;;;19.74;80.83;94857.13;5074951;28;20193;-76
2022/06/06 05:20:12;;;;;;;10.90;8.38;;;;;;;19.71;80.79;94862.34;5075193;28;20561;-77
2022/06/06 05:23:00;;;;;;;10.20;7.70;;;;;;;19.71;81.25;94855.97;5075661;28;20239;-77
2022/06/06 05:25:53;;;;;;;9.13;7.63;;;;;;;19.73;81.37;94864.75;5075588;28;20196;-77
2022/06/06 05:28:53;;;;;;;8.18;7.28;;;;;;;19.75;80.86;94856.72;5073277;28;20243;-77
2022/06/06 05:31:33;;;;;;;10.38;8.40;;;;;;;19.80;80.08;94847.09;5072906;28;20213;-77
2022/06/06 05:34:04;;;;;;;9.80;7.82;;;;;;;19.82;79.90;94839.84;5075090;28;20189;-77
2022/06/06 05:36:39;;;;;;;9.68;8.02;;;;;;;19.85;81.58;94850.19;5074635;28;20207;-77
2022/06/06 05:39:45;;;;;;;9.57;7.57;;;;;;;19.86;79.78;94848.19;5075567;28;20192;-77
2022/06/06 05:42:30;;;;;;;9.90;7.28;;;;;;;19.91;79.45;94844.94;5074470;28;20204;-77
2022/06/06 05:45:07;;;;;;;10.65;7.57;;;;;;;19.97;80.71;94851.66;5075256;28;20185;-77
2022/06/06 05:47:42;;;;;;;9.23;7.78;;;;;;;20.06;81.85;94856.75;5075430;28;20266;-77
2022/06/06 05:50:19;;;;;;;9.38;7.40;;;;;;;20.12;82.09;94855.88;5074714;28;20215;-77
2022/06/06 05:53:02;;;;;;;9.40;7.28;;;;;;;20.16;81.27;94861.44;5074639;28;20212;-77
2022/06/06 05:55:44;;;;;;;10.45;8.63;;;;;;;20.19;81.30;94855.78;5074413;28;20200;-77
2022/06/06 05:58:31;;;;;;;9.45;8.05;;;;;;;20.26;81.02;94849.31;5074783;28;20205;-77
2022/06/06 06:01:09;;;;;;;10.85;7.45;;;;;;;20.34;80.18;94845.19;5074501;28;20243;-77
2022/06/06 06:04:08;;;;;;;10.88;7.05;;;;;;;20.37;79.56;94849.94;5074308;28;20201;-77
2022/06/06 06:06:39;;;;;;;9.82;6.72;;;;;;;20.36;79.12;94853.94;5062139;28;20216;-77
2022/06/06 06:09:19;;;;;;;7.93;7.15;;;;;;;20.39;79.60;94867.09;5073385;28;20212;-78
2022/06/06 06:12:07;;;;;;;8.95;7.10;;;;;;;20.44;79.61;94866.66;5074498;28;20181;-77
2022/06/06 06:14:42;;;;;;;9.52;6.78;;;;;;;20.48;79.51;94866.59;5074478;28;20209;-77
2022/06/06 06:17:10;;;;;;;8.93;7.72;;;;;;;20.50;78.84;94858.56;5075150;28;20192;-77
2022/06/06 06:19:42;;;;;;;19.33;17.42;;;;;;;20.58;79.52;94856.47;5074330;28;20246;-77
2022/06/06 06:22:10;;;;;;;15.48;13.98;;;;;;;20.67;80.05;94865.16;5074411;28;20576;-77
2022/06/06 06:24:39;;;;;;;10.32;9.30;;;;;;;20.67;79.78;94851.91;5074930;28;20233;-77
2022/06/06 06:27:07;;;;;;;9.80;8.05;;;;;;;20.70;81.11;94857.88;5074134;28;20197;-77
2022/06/06 06:29:34;;;;;;;10.57;6.50;;;;;;;20.70;80.10;94863.47;5074274;28;20278;-77
2022/06/06 06:32:18;;;;;;;6.47;5.82;;;;;;;20.75;78.59;94872.22;5074652;28;20197;-78
2022/06/06 06:34:56;;;;;;;8.57;6.25;;;;;;;20.78;80.06;94862.97;5074874;28;20197;-77
2022/06/06 06:37:33;;;;;;;8.32;6.70;;;;;;;20.82;80.30;94855.28;5074595;28;20177;-77
2022/06/06 06:40:10;;;;;;;10.32;7.57;;;;;;;20.83;78.63;94856.88;5074040;28;20249;-77
2022/06/06 06:42:54;;;;;;;7.38;6.53;;;;;;;20.81;79.10;94850.13;5074651;28;20632;-77
2022/06/06 06:45:23;;;;;;;8.52;7.18;;;;;;;20.79;78.94;94844.13;5073952;28;20227;-77
2022/06/06 06:47:53;;;;;;;9.00;7.60;;;;;;;20.75;79.02;94830.19;5073798;28;20201;-77
2022/06/06 06:50:24;;;;;;;9.77;7.32;;;;;;;20.72;78.00;94824.63;5074299;28;20331;-76
2022/06/06 06:53:01;;;;;;;9.52;7.18;;;;;;;20.70;79.25;94807.44;5073970;28;20604;-77
2022/06/06 06:55:35;;;;;;;9.95;6.80;;;;;;;20.70;79.65;94796.22;5074748;28;20255;-77
2022/06/06 06:58:21;;;;;;;10.65;8.10;;;;;;;20.75;79.84;94802.16;5074384;28;20597;-77
2022/06/06 07:00:51;;;;;;;10.57;7.90;;;;;;;20.77;80.36;94796.13;5074328;28;20262;-77
2022/06/06 07:09:24;;;;;;;10.32;7.95;;;;;;;20.84;80.38;94796.81;5074185;28;20201;-76
2022/06/06 07:12:05;;;;;;;9.80;7.40;;;;;;;20.91;80.24;94788.28;5074810;28;20195;-76
2022/06/06 07:14:54;;;;;;;11.18;7.53;;;;;;;21.02;79.57;94776.06;5073533;28;20609;-77
2022/06/06 07:17:22;;;;;;;10.52;7.45;;;;;;;21.09;79.41;94781.56;5073565;28;20207;-77
2022/06/06 07:19:52;;;;;;;9.75;7.28;;;;;;;21.18;79.06;94779.00;5074187;28;20582;-77
2022/06/06 07:22:21;;;;;;;9.07;6.88;;;;;;;21.25;78.37;94767.66;5077035;28;20578;-76
2022/06/06 07:24:52;;;;;;;10.60;7.00;;;;;;;21.32;78.79;94773.13;5036877;28;20190;-77
2022/06/06 07:27:19;;;;;;;9.23;6.78;;;;;;;21.38;79.31;94774.22;5036784;28;20209;-76
2022/06/06 07:29:46;;;;;;;11.32;6.68;;;;;;;21.46;78.38;94776.88;5037243;28;20225;-76
2022/06/06 07:32:34;;;;;;;9.38;6.03;;;;;;;21.51;78.18;94780.00;5037362;28;20191;-76
2022/06/06 07:35:04;;;;;;;10.15;5.95;;;;;;;21.53;77.62;94771.13;5037126;28;20512;-77
2022/06/06 07:37:47;;;;;;;6.88;5.57;;;;;;;21.55;77.42;94786.31;5037877;28;20244;-77
2022/06/06 07:40:22;;;;;;;9.43;6.00;;;;;;;21.64;77.02;94782.94;5036823;28;20216;-76
2022/06/06 07:43:09;;;;;;;10.93;6.85;;;;;;;21.75;76.13;94788.34;5036620;28;20202;-76
2022/06/06 07:45:40;;;;;;;7.47;6.07;;;;;;;21.87;76.72;94785.69;5037582;28;20190;-76
2022/06/06 07:48:30;;;;;;;10.35;5.70;;;;;;;22.00;75.61;94785.78;5053576;28;20229;-76
2022/06/06 07:51:02;;;;;;;8.57;5.90;;;;;;;22.07;75.42;94784.84;5036477;28;20264;-76
2022/06/06 07:53:37;;;;;;;8.52;6.18;;;;;;;22.13;75.18;94794.34;5036640;28;20297;-76
2022/06/06 07:56:08;;;;;;;8.93;5.10;;;;;;;22.21;74.85;94795.00;5037941;28;20189;-76
2022/06/06 07:58:40;;;;;;;8.70;5.57;;;;;;;22.24;73.32;94789.31;5037468;28;20201;-76
2022/06/06 08:01:11;;;;;;;9.40;5.38;;;;;;;22.31;72.64;94794.78;5037489;28;20208;-76
2022/06/06 08:03:47;;;;;;;11.55;5.45;;;;;;;22.37;71.36;94795.06;5053217;28;20195;-77
2022/06/06 08:06:21;;;;;;;7.78;5.13;;;;;;;22.44;71.43;94782.84;5037253;28;20232;-77
2022/06/06 08:09:16;;;;;;;7.80;5.45;;;;;;;22.45;72.12;94790.84;5037286;28;20247;-78
2022/06/06 08:12:00;;;;;;;8.65;5.13;;;;;;;22.47;71.81;94796.03;5035786;28;20585;-77
2022/06/06 08:14:37;;;;;;;9.20;5.15;;;;;;;22.50;71.62;94786.72;5036585;28;20206;-77
2022/06/06 08:17:11;;;;;;;10.27;5.95;;;;;;;22.50;71.83;94798.75;5052785;28;20602;-77
2022/06/06 08:19:51;;;;;;;7.22;5.63;;;;;;;22.53;71.54;94805.53;5036165;28;20259;-77
2022/06/06 08:22:18;;;;;;;6.55;5.25;;;;;;;22.51;71.07;94805.97;5036034;28;20210;-77
2022/06/06 08:24:49;;;;;;;6.47;4.90;;;;;;;22.51;70.33;94807.97;5075382;28;20564;-76
2022/06/06 08:27:19;;;;;;;6.85;5.10;;;;;;;22.50;70.54;94810.00;5075923;28;20212;-77
2022/06/06 08:29:48;;;;;;;7.60;4.85;;;;;;;22.51;70.52;94808.78;5075832;28;20217;-77
2022/06/06 08:32:15;;;;;;;8.80;4.40;;;;;;;22.55;69.80;94808.72;5075301;28;20193;-77
2022/06/06 08:34:42;;;;;;;7.72;4.45;;;;;;;22.59;70.52;94813.00;5076141;28;20204;-77
2022/06/06 08:37:42;;;;;;;7.65;4.72;;;;;;;22.66;69.42;94814.06;5075749;28;20197;-76
2022/06/06 08:40:24;;;;;;;7.32;4.88;;;;;;;22.69;69.54;94810.38;5072368;28;20274;-77
2022/06/06 08:43:00;;;;;;;7.03;5.25;;;;;;;22.70;70.32;94797.91;5075718;28;20189;-76
2022/06/06 08:45:52;;;;;;;7.80;5.40;;;;;;;22.72;70.64;94803.88;5075716;28;20288;-76
2022/06/06 08:48:38;;;;;;;8.50;5.10;;;;;;;22.74;70.71;94807.84;5076224;28;20189;-76
2022/06/06 08:51:23;;;;;;;7.88;5.07;;;;;;;22.73;69.97;94814.69;5076123;28;20660;-76
2022/06/06 08:54:40;;;;;;;6.38;4.88;;;;;;;22.69;68.94;94813.97;5075485;28;20236;-76
2022/06/06 08:57:14;;;;;;;8.05;4.75;;;;;;;22.65;69.52;94815.28;4998385;28;20597;-77
2022/06/06 09:00:13;;;;;;;6.93;5.18;;;;;;;22.58;69.97;94811.41;5072902;28;20215;-77
2022/06/06 09:03:19;;;;;;;8.20;4.75;;;;;;;22.54;69.46;94809.91;5075423;28;20217;-76
2022/06/06 09:05:58;;;;;;;8.18;4.60;;;;;;;22.52;67.83;94818.00;5076049;28;20181;-76
2022/06/06 09:09:17;;;;;;;9.32;5.28;;;;;;;22.59;63.59;94840.31;5076254;28;20272;-77
2022/06/06 09:12:17;;;;;;;6.18;5.35;;;;;;;22.56;60.55;94853.22;4978495;28;20215;-77
2022/06/06 09:15:14;;;;;;;8.88;7.63;;;;;;;22.43;60.53;94843.09;5074089;28;20254;-76
2022/06/06 09:18:07;;;;;;;9.07;7.78;;;;;;;22.26;59.92;94845.06;5075800;28;20208;-77
2022/06/06 09:21:10;;;;;;;10.45;9.27;;;;;;;22.10;60.66;94842.97;5074839;28;20216;-77
2022/06/06 09:24:05;;;;;;;5.72;5.18;;;;;;;22.23;62.64;94876.84;5074442;28;20285;-77
2022/06/06 09:26:40;;;;;;;10.30;6.82;;;;;;;22.33;61.83;94887.03;5075862;28;20303;-77
2022/06/06 09:29:43;;;;;;;6.25;5.32;;;;;;;22.05;63.83;94891.22;5075660;28;20177;-76
2022/06/06 09:32:42;;;;;;;7.60;4.78;;;;;;;21.82;65.62;94894.84;5074879;28;20533;-77
2022/06/06 09:35:41;;;;;;;7.60;5.18;;;;;;;21.67;66.38;94883.09;5075579;28;20196;-77
2022/06/06 09:38:16;;;;;;;5.05;4.00;;;;;;;21.55;67.20;94884.53;4997611;28;20207;-77
2022/06/06 09:40:57;;;;;;;4.78;3.85;;;;;;;21.39;67.04;94884.44;5065448;28;20220;-76
2022/06/06 09:43:38;;;;;;;6.78;4.55;;;;;;;21.34;67.89;94888.50;5073966;28;20185;-77
2022/06/06 09:46:35;;;;;;;6.50;4.10;;;;;;;21.30;67.27;94886.97;5074904;28;20203;-76
2022/06/06 09:49:41;;;;;;;5.70;3.55;;;;;;;21.30;67.53;94892.56;5074367;28;20212;-77
2022/06/06 09:52:43;;;;;;;4.18;3.72;;;;;;;21.31;66.22;94877.31;5074027;28;20548;-76
2022/06/06 09:59:03;;;;;;;4.07;3.60;;;;;;;21.48;65.02;94864.22;5074216;28;20193;-77
2022/06/06 10:02:08;;;;;;;3.95;3.38;;;;;;;21.62;64.30;94861.16;5073935;28;20197;-77
2022/06/06 10:05:28;;;;;;;4.35;3.58;;;;;;;21.82;63.66;94863.97;5034309;28;20197;-77
2022/06/06 10:08:09;;;;;;;3.60;3.30;;;;;;;;;;4993965;28;20192;-77
2022/06/06 10:11:17;;;;;;;4.90;3.58;;;;;;;22.34;62.88;94855.72;5063564;28;20240;-77
2022/06/06 10:14:00;;;;;;;3.65;3.35;;;;;;;22.58;60.13;94862.00;5075009;28;20258;-76
2022/06/06 10:16:44;;;;;;;4.57;3.45;;;;;;;22.58;61.22;94867.63;5075361;28;20197;-77
2022/06/06 10:19:25;;;;;;;4.45;3.90;;;;;;;22.41;58.73;94896.94;5075098;28;20205;-76
2022/06/06 10:22:13;;;;;;;4.53;4.13;;;;;;;22.19;59.49;94910.63;5075009;28;20201;-76
2022/06/06 10:25:08;;;;;;;7.90;5.57;;;;;;;21.99;62.66;94927.41;5074547;28;20232;-76
2022/06/06 10:27:46;;;;;;;9.20;5.78;;;;;;;21.77;66.47;94917.81;5074071;28;20258;-76
2022/06/06 10:30:20;;;;;;;7.82;5.75;;;;;;;21.46;68.57;94903.94;5074593;28;20205;-76
2022/06/06 10:33:13;;;;;;;7.35;5.80;;;;;;;21.29;71.40;94910.63;5074993;28;20219;-76
2022/06/06 10:35:55;;;;;;;8.10;6.57;;;;;;;21.12;71.43;94906.88;5074891;28;20181;-77
2022/06/06 10:38:46;;;;;;;7.85;6.50;;;;;;;21.01;73.16;94925.88;5074969;28;20181;-76
2022/06/06 10:41:25;;;;;;;9.52;7.95;;;;;;;20.98;73.86;94916.31;5073954;28;20201;-77
2022/06/06 10:44:23;;;;;;;7.70;6.90;;;;;;;20.92;73.14;94899.19;5075094;28;20185;-77
2022/06/06 10:46:59;;;;;;;7.47;4.88;;;;;;;20.97;73.20;94888.72;5070978;28;20208;-76
2022/06/06 10:49:33;;;;;;;5.88;5.22;;;;;;;20.95;73.44;94877.13;5074694;28;20262;-76
2022/06/06 10:52:18;;;;;;;8.40;5.43;;;;;;;20.93;73.17;94877.56;5073918;28;20254;-77
2022/06/06 10:55:15;;;;;;;6.70;4.50;;;;;;;20.92;72.50;94887.19;5074569;28;20279;-76
2022/06/06 10:58:09;;;;;;;7.65;4.43;;;;;;;20.87;74.91;94891.25;5057529;28;20233;-76
2022/06/06 11:01:15;;;;;;;5.70;4.80;;;;;;;20.84;76.12;94883.72;5077738;28;20198;-76
2022/06/06 11:04:16;;;;;;;5.20;4.35;;;;;;;20.79;75.72;94878.56;5069520;28;20212;-76
2022/06/06 11:07:07;;;;;;;6.75;4.38;;;;;;;20.88;74.82;94864.03;5069384;28;20204;-76
2022/06/06 11:10:14;;;;;;;5.40;4.57;;;;;;;20.93;74.93;94871.94;5077365;28;20193;-77
2022/06/06 11:13:20;;;;;;;4.72;4.32;;;;;;;20.89;74.54;94882.41;5076978;28;20212;-76
2022/06/06 11:16:10;;;;;;;5.47;4.47;;;;;;;20.82;74.34;94883.31;5077264;28;20259;-76
2022/06/06 11:19:09;;;;;;;5.70;4.63;;;;;;;20.87;75.31;94893.25;5075210;28;20212;-76
2022/06/06 11:22:18;;;;;;;5.05;4.07;;;;;;;20.87;75.51;94896.84;5077032;28;20518;-76
2022/06/06 11:24:50;;;;;;;4.45;4.05;;;;;;;20.88;74.51;94894.88;5063955;28;20615;-76
2022/06/06 11:27:37;;;;;;;6.00;4.38;;;;;;;20.86;72.87;94883.25;5077996;28;20254;-76
2022/06/06 11:30:14;;;;;;;4.70;3.92;;;;;;;20.86;72.80;94878.44;5077886;28;20209;-76
2022/06/06 11:32:59;;;;;;;4.88;4.40;;;;;;;20.87;72.58;94880.03;5077156;28;20208;-77
2022/06/06 11:35:41;;;;;;;5.60;4.15;;;;;;;20.88;73.40;94873.22;5076932;28;20193;-77
2022/06/06 11:38:31;;;;;;;5.15;4.40;;;;;;;20.91;73.28;94869.56;5077941;28;20189;-76
2022/06/06 11:41:07;;;;;;;5.53;4.28;;;;;;;20.85;73.36;94862.84;5076923;28;20192;-76
2022/06/06 11:43:53;;;;;;;6.15;4.05;;;;;;;20.82;74.07;94857.31;5076691;28;20205;-77
2022/06/06 11:46:45;;;;;;;4.43;4.03;;;;;;;20.85;74.09;94860.06;5077237;28;20541;-77
2022/06/06 11:49:39;;;;;;;4.95;4.07;;;;;;;20.92;74.15;94859.94;5077334;28;20655;-77
2022/06/06 11:52:38;;;;;;;4.43;3.97;;;;;;;20.92;73.14;94870.38;5077477;28;20201;-77
2022/06/06 11:55:20;;;;;;;5.60;4.18;;;;;;;20.92;72.99;94878.78;5076751;28;20200;-77
2022/06/06 11:58:00;;;;;;;4.55;4.03;;;;;;;20.92;72.48;94873.16;5076489;28;20193;-77
2022/06/06 12:00:36;;;;;;;4.35;3.95;;;;;;;20.90;71.77;94887.59;5077151;28;20212;-76
2022/06/06 12:03:36;;;;;;;4.50;4.10;;;;;;;20.91;72.66;94891.19;5077410;28;20189;-76
2022/06/06 12:06:19;;;;;;;4.90;4.50;;;;;;;20.90;71.74;94884.78;5076746;28;20258;-76
2022/06/06 12:09:14;;;;;;;5.25;4.47;;;;;;;20.93;72.52;94877.56;5076384;28;20218;-77
2022/06/06 12:12:07;;;;;;;4.28;3.83;;;;;;;20.92;72.00;94857.13;5075909;28;20232;-77
2022/06/06 12:15:10;;;;;;;4.97;4.10;;;;;;;20.87;70.70;94831.59;5076540;28;20230;-77
2022/06/06 12:17:47;;;;;;;4.18;3.85;;;;;;;20.88;71.90;94813.56;5075753;28;20208;-77
2022/06/06 12:20:52;;;;;;;4.70;4.18;;;;;;;20.89;71.96;94823.56;5077052;28;20189;-77
2022/06/06 12:23:23;;;;;;;4.85;4.38;;;;;;;20.86;71.76;94813.97;5076634;28;20228;-77
2022/06/06 12:25:59;;;;;;;5.68;4.63;;;;;;;20.84;70.92;94824.03;5077053;28;20205;-77
2022/06/06 12:28:55;;;;;;;5.47;4.32;;;;;;;20.84;71.73;94841.66;5076880;28;20191;-77
2022/06/06 12:31:37;;;;;;;5.10;4.18;;;;;;;20.84;71.73;94860.47;5075679;28;20217;-77
2022/06/06 12:34:10;;;;;;;4.72;4.15;;;;;;;20.87;71.63;94859.63;5076720;28;20209;-77
2022/06/06 12:36:45;;;;;;;5.00;4.60;;;;;;;20.83;70.57;94878.50;5075845;28;20200;-77
2022/06/06 12:39:16;;;;;;;6.22;4.43;;;;;;;20.83;70.40;94878.50;5076664;28;20184;-77
2022/06/06 12:41:54;;;;;;;6.57;4.63;;;;;;;20.88;70.91;94878.84;5076449;28;20182;-77